createdAt,value
2022-08-30T00:01:32.622Z,100686.13
2022-08-30T00:04:02.506Z,100686.25
2022-08-30T00:06:30.184Z,100674.09
2022-08-30T00:08:57.182Z,100677.81
2022-08-30T00:11:27.114Z,100673.59
2022-08-30T00:13:55.968Z,100675.63
2022-08-30T00:16:23.954Z,100674.31
2022-08-30T00:18:51.175Z,100666.34
2022-08-30T00:21:19.065Z,100666.09
2022-08-30T00:23:47.796Z,100676.69
2022-08-30T00:26:14.262Z,100665.00
2022-08-30T00:28:40.729Z,100668.00
2022-08-30T00:31:07.512Z,100679.25
2022-08-30T00:33:34.115Z,100671.66
2022-08-30T00:36:00.590Z,100667.56
2022-08-30T00:38:27.337Z,100666.47
2022-08-30T00:40:53.993Z,100669.56
2022-08-30T00:43:34.142Z,100680.84
2022-08-30T00:46:04.658Z,100685.78
2022-08-30T00:48:33.458Z,100681.16
2022-08-30T00:51:05.789Z,100694.81
2022-08-30T00:53:36.604Z,100686.75
2022-08-30T00:56:05.141Z,100687.69
2022-08-30T00:58:36.412Z,100696.09
2022-08-30T01:01:06.225Z,100699.56
2022-08-30T01:03:36.221Z,100704.72
2022-08-30T01:06:04.988Z,100708.31
2022-08-30T01:08:31.782Z,100715.16
2022-08-30T01:10:58.496Z,100728.09
2022-08-30T01:13:26.874Z,100722.81
2022-08-30T01:15:59.867Z,100723.91
2022-08-30T01:18:26.847Z,100722.28
2022-08-30T01:21:23.034Z,100725.28
2022-08-30T01:23:58.861Z,100721.66
2022-08-30T01:26:28.453Z,100726.81
2022-08-30T01:28:59.648Z,100729.94
2022-08-30T01:31:26.546Z,100733.38
2022-08-30T01:33:53.377Z,100731.94
2022-08-30T01:36:20.958Z,100724.22
2022-08-30T01:38:51.497Z,100742.75
2022-08-30T01:41:17.982Z,100731.94
2022-08-30T01:43:44.863Z,100738.13
2022-08-30T01:46:12.964Z,100734.44
2022-08-30T01:48:40.935Z,100741.88
2022-08-30T01:51:11.708Z,100738.75
2022-08-30T01:53:42.446Z,100737.31
2022-08-30T01:56:10.024Z,100738.09
2022-08-30T01:58:39.470Z,100734.38
2022-08-30T02:01:14.529Z,100734.63
2022-08-30T02:03:43.368Z,100735.09
2022-08-30T02:06:14.151Z,100732.78
2022-08-30T02:08:44.062Z,100729.03
2022-08-30T02:11:11.459Z,100728.47
2022-08-30T02:13:43.064Z,100733.72
2022-08-30T02:16:13.937Z,100725.38
2022-08-30T02:18:40.445Z,100739.16
2022-08-30T02:21:08.067Z,100728.41
2022-08-30T02:23:40.371Z,100733.28
2022-08-30T02:26:10.330Z,100732.66
2022-08-30T02:28:42.711Z,100728.03
2022-08-30T02:31:17.144Z,100728.91
2022-08-30T02:33:46.230Z,100718.56
2022-08-30T02:36:15.491Z,100726.81
2022-08-30T02:38:41.989Z,100709.91
2022-08-30T02:41:10.940Z,100712.06
2022-08-30T02:43:37.442Z,100720.13
2022-08-30T02:46:05.015Z,100730.94
2022-08-30T02:48:31.502Z,100715.06
2022-08-30T02:51:05.784Z,100711.25
2022-08-30T02:53:36.517Z,100714.25
2022-08-30T02:56:03.535Z,100704.47
2022-08-30T02:58:32.518Z,100713.16
2022-08-30T03:00:59.296Z,100702.38
2022-08-30T03:03:25.974Z,100712.34
2022-08-30T03:05:52.415Z,100699.03
2022-08-30T03:08:18.835Z,100700.34
2022-08-30T03:10:47.429Z,100697.19
2022-08-30T03:13:13.993Z,100703.13
2022-08-30T03:15:41.553Z,100702.47
2022-08-30T03:18:09.055Z,100701.00
2022-08-30T03:20:38.738Z,100726.63
2022-08-30T03:23:05.407Z,100695.25
2022-08-30T03:25:33.774Z,100692.34
2022-08-30T03:28:00.551Z,100696.59
2022-08-30T03:30:30.478Z,100705.69
2022-08-30T03:33:00.732Z,100718.81
2022-08-30T03:35:27.406Z,100700.19
2022-08-30T03:38:02.926Z,100700.19
2022-08-30T03:40:31.707Z,100708.44
2022-08-30T03:42:58.126Z,100706.13
2022-08-30T03:45:24.587Z,100693.88
2022-08-30T03:47:51.698Z,100707.22
2022-08-30T03:50:18.086Z,100699.41
2022-08-30T03:52:45.704Z,100694.13
2022-08-30T03:55:12.500Z,100709.59
2022-08-30T03:57:40.506Z,100694.59
2022-08-30T04:00:11.193Z,100714.50
2022-08-30T04:02:40.851Z,100702.88
2022-08-30T04:05:08.997Z,100702.66
2022-08-30T04:07:35.814Z,100702.06
2022-08-30T04:10:02.666Z,100718.34
2022-08-30T04:12:29.090Z,100703.13
2022-08-30T04:14:55.562Z,100700.38
2022-08-30T04:17:22.098Z,100698.88
2022-08-30T04:19:48.493Z,100698.06
2022-08-30T04:22:14.957Z,100702.72
2022-08-30T04:24:41.630Z,100710.34
2022-08-30T04:27:11.312Z,100711.19
2022-08-30T04:29:39.876Z,100709.50
2022-08-30T04:32:06.450Z,100716.31
2022-08-30T04:34:37.563Z,100722.63
2022-08-30T04:37:03.999Z,100716.69
2022-08-30T04:39:31.043Z,100716.09
2022-08-30T04:41:58.328Z,100727.50
2022-08-30T04:44:27.340Z,100724.34
2022-08-30T04:46:54.130Z,100737.88
2022-08-30T04:49:20.647Z,100728.16
2022-08-30T04:51:47.247Z,100726.69
2022-08-30T04:54:13.889Z,100734.91
2022-08-30T04:56:43.689Z,100743.59
2022-08-30T04:59:14.292Z,100733.66
2022-08-30T05:01:45.449Z,100732.34
2022-08-30T05:04:15.928Z,100735.97
2022-08-30T05:06:43.071Z,100735.09
2022-08-30T05:09:09.629Z,100735.09
2022-08-30T05:11:36.888Z,100728.56
2022-08-30T05:14:03.358Z,100738.50
2022-08-30T05:16:29.862Z,100734.03
2022-08-30T05:18:56.384Z,100733.63
2022-08-30T05:21:27.107Z,100739.53
2022-08-30T05:24:00.851Z,100747.34
2022-08-30T05:26:33.181Z,100748.22
2022-08-30T05:29:00.367Z,100750.94
2022-08-30T05:31:30.208Z,100743.31
2022-08-30T05:33:57.805Z,100760.22
2022-08-30T05:36:27.369Z,100764.84
2022-08-30T05:38:54.936Z,100761.41
2022-08-30T05:41:23.229Z,100766.94
2022-08-30T05:44:01.356Z,100790.38
2022-08-30T05:49:06.395Z,100785.25
2022-08-30T05:51:34.890Z,100779.25
2022-08-30T05:54:01.618Z,100773.69
2022-08-30T05:56:32.611Z,100765.34
2022-08-30T05:59:05.018Z,100785.22
2022-08-30T06:01:35.219Z,100768.38
2022-08-30T06:04:06.120Z,100779.59
2022-08-30T06:06:37.334Z,100778.88
2022-08-30T06:09:05.990Z,100796.22
2022-08-30T06:11:33.523Z,100816.25
2022-08-30T06:14:00.485Z,100814.00
2022-08-30T06:16:28.244Z,100817.53
2022-08-30T06:19:00.132Z,100809.09
2022-08-30T06:21:28.673Z,100795.81
2022-08-30T06:23:56.391Z,100828.97
2022-08-30T06:26:23.393Z,100821.63
2022-08-30T06:28:50.119Z,100820.09
2022-08-30T06:31:18.763Z,100831.00
2022-08-30T06:33:50.979Z,100815.38
2022-08-30T06:36:22.738Z,100809.34
2022-08-30T06:38:54.783Z,100814.47
2022-08-30T06:41:29.133Z,100845.88
2022-08-30T06:43:57.094Z,100824.38
2022-08-30T06:46:30.131Z,100846.53
2022-08-30T06:48:57.211Z,100861.56
2022-08-30T06:51:36.682Z,100842.13
2022-08-30T06:54:05.019Z,100805.06
2022-08-30T06:56:31.862Z,100846.03
2022-08-30T06:58:59.116Z,100857.34
2022-08-30T07:01:28.323Z,100876.50
2022-08-30T07:03:55.597Z,100873.25
2022-08-30T07:06:23.764Z,100885.53
2022-08-30T07:08:50.985Z,100879.00
2022-08-30T07:11:41.654Z,100891.03
2022-08-30T07:14:08.715Z,100864.59
2022-08-30T07:16:35.553Z,100853.66
2022-08-30T07:19:03.385Z,100849.53
2022-08-30T07:21:34.315Z,100911.44
2022-08-30T07:24:01.237Z,100906.63
2022-08-30T07:26:32.816Z,100924.94
2022-08-30T07:28:59.946Z,100940.84
2022-08-30T07:31:26.601Z,100902.25
2022-08-30T07:33:53.201Z,100924.09
2022-08-30T07:36:21.806Z,100922.63
2022-08-30T07:38:54.706Z,100914.63
2022-08-30T07:41:28.924Z,100934.28
2022-08-30T07:43:58.242Z,100906.53
2022-08-30T07:46:28.249Z,100918.03
2022-08-30T07:48:55.199Z,100907.22
2022-08-30T07:51:27.578Z,100921.00
2022-08-30T07:53:55.227Z,100909.22
2022-08-30T07:56:22.274Z,100888.97
2022-08-30T07:58:49.784Z,100908.34
2022-08-30T08:01:20.136Z,100909.19
2022-08-30T08:03:47.844Z,100859.16
2022-08-30T08:06:19.246Z,100902.25
2022-08-30T08:08:45.778Z,100914.72
2022-08-30T08:11:21.789Z,100927.94
2022-08-30T08:13:53.779Z,100935.28
2022-08-30T08:16:23.084Z,100947.31
2022-08-30T08:18:49.605Z,100913.31
2022-08-30T08:21:16.129Z,100924.28
2022-08-30T08:23:42.570Z,100971.19
2022-08-30T08:26:09.100Z,100964.75
2022-08-30T08:28:35.604Z,100966.66
2022-08-30T08:31:14.773Z,100975.69
2022-08-30T08:33:41.314Z,100950.25
2022-08-30T08:36:09.983Z,100970.38
2022-08-30T08:38:38.960Z,100972.28
2022-08-30T08:41:10.458Z,100986.50
2022-08-30T08:43:37.441Z,101015.63
2022-08-30T08:46:06.458Z,100979.78
2022-08-30T08:48:58.422Z,100969.19
2022-08-30T08:51:47.008Z,100959.31
2022-08-30T08:54:16.122Z,100947.50
2022-08-30T08:56:43.131Z,100982.47
2022-08-30T08:59:11.676Z,100969.09
2022-08-30T09:01:41.289Z,100954.66
2022-08-30T09:04:20.635Z,100974.53
2022-08-30T09:06:59.412Z,100963.19
2022-08-30T09:09:38.615Z,100976.84
2022-08-30T09:12:13.182Z,100963.56
2022-08-30T09:14:46.014Z,100943.84
2022-08-30T09:17:15.662Z,100943.28
2022-08-30T09:19:54.193Z,100903.66
2022-08-30T09:22:37.799Z,100917.63
2022-08-30T09:25:12.980Z,100929.34
2022-08-30T09:27:40.789Z,100972.09
2022-08-30T09:30:15.478Z,100958.72
2022-08-30T09:32:52.363Z,100972.19
2022-08-30T09:35:24.176Z,100963.84
2022-08-30T09:37:56.536Z,100975.53
2022-08-30T09:40:44.192Z,100960.50
2022-08-30T09:43:16.458Z,100942.34
2022-08-30T09:45:49.784Z,100927.53
2022-08-30T09:48:28.931Z,100928.06
2022-08-30T09:51:29.110Z,100944.28
2022-08-30T09:54:17.109Z,100941.53
2022-08-30T09:56:50.794Z,100928.06
2022-08-30T09:59:48.470Z,100952.09
2022-08-30T10:02:45.939Z,100934.38
2022-08-30T10:05:49.593Z,100931.38
2022-08-30T10:08:27.640Z,100942.91
2022-08-30T10:11:04.501Z,100926.09
2022-08-30T10:13:49.968Z,100931.97
2022-08-30T10:16:58.943Z,100928.59
2022-08-30T10:19:51.442Z,100914.59
2022-08-30T10:22:41.978Z,100933.66
2022-08-30T10:25:18.538Z,100911.81
2022-08-30T10:28:10.198Z,100893.34
2022-08-30T10:30:40.831Z,100902.47
2022-08-30T10:33:33.209Z,100883.00
2022-08-30T10:36:05.336Z,100892.13
2022-08-30T10:38:39.596Z,100898.09
2022-08-30T10:41:28.567Z,100873.69
2022-08-30T10:44:03.078Z,100884.53
2022-08-30T10:46:36.459Z,100888.53
2022-08-30T10:49:12.244Z,100881.88
2022-08-30T10:51:54.977Z,100880.50
2022-08-30T10:54:34.584Z,100853.53
2022-08-30T10:57:01.072Z,100857.97
2022-08-30T10:59:30.537Z,100887.50
2022-08-30T11:02:16.347Z,100876.31
2022-08-30T11:05:05.191Z,100863.56
2022-08-30T11:07:46.261Z,100869.97
2022-08-30T11:10:24.521Z,100870.28
2022-08-30T11:13:11.334Z,100844.97
2022-08-30T11:15:57.286Z,100838.50
2022-08-30T11:18:27.283Z,100822.19
2022-08-30T11:21:15.240Z,100794.38
2022-08-30T11:24:04.774Z,100811.69
2022-08-30T11:26:46.717Z,100799.19
2022-08-30T11:29:32.686Z,100808.28
2022-08-30T11:32:19.788Z,100801.72
2022-08-30T11:34:46.490Z,100800.50
2022-08-30T11:37:37.374Z,100788.16
2022-08-30T11:40:26.285Z,100779.22
2022-08-30T11:43:00.030Z,100764.81
2022-08-30T11:45:28.394Z,100769.81
2022-08-30T11:48:39.121Z,100783.69
2022-08-30T11:51:31.237Z,100781.47
2022-08-30T11:54:03.479Z,100782.13
2022-08-30T11:56:58.993Z,100764.41
2022-08-30T12:00:02.192Z,100755.59
2022-08-30T12:02:59.292Z,100767.00
2022-08-30T12:05:38.659Z,100770.50
2022-08-30T12:08:09.969Z,100771.53
2022-08-30T12:10:40.942Z,100758.50
2022-08-30T12:13:10.674Z,100766.28
2022-08-30T12:16:01.678Z,100756.03
2022-08-30T12:19:00.170Z,100727.09
2022-08-30T12:21:43.766Z,100721.94
2022-08-30T12:24:25.097Z,100724.69
2022-08-30T12:26:53.102Z,100743.25
2022-08-30T12:29:19.542Z,100733.25
2022-08-30T12:31:58.249Z,100746.13
2022-08-30T12:34:44.784Z,100731.22
2022-08-30T12:37:55.502Z,100720.94
2022-08-30T12:40:25.362Z,100737.06
2022-08-30T12:43:04.775Z,100704.06
2022-08-30T12:45:42.843Z,100718.44
2022-08-30T12:48:12.965Z,100706.19
2022-08-30T12:50:51.907Z,100702.53
2022-08-30T12:53:29.026Z,100702.56
2022-08-30T12:56:02.111Z,100681.59
2022-08-30T12:58:47.267Z,100694.03
2022-08-30T13:01:19.880Z,100688.31
2022-08-30T13:04:23.731Z,100686.09
2022-08-30T13:06:59.149Z,100686.41
2022-08-30T13:09:34.623Z,100680.44
2022-08-30T13:12:03.909Z,100680.19
2022-08-30T13:14:35.284Z,100678.97
2022-08-30T13:17:22.965Z,100653.88
2022-08-30T13:20:16.132Z,100648.59
2022-08-30T13:23:08.010Z,100649.22
2022-08-30T13:25:38.325Z,100631.66
2022-08-30T13:28:06.929Z,100643.94
2022-08-30T13:30:36.302Z,100643.63
2022-08-30T13:33:03.007Z,100641.78
2022-08-30T13:35:32.665Z,100624.81
2022-08-30T13:38:01.918Z,100637.72
2022-08-30T13:40:28.643Z,100631.00
2022-08-30T13:42:56.637Z,100613.41
2022-08-30T13:45:41.608Z,100614.09
2022-08-30T13:48:10.842Z,100592.44
2022-08-30T13:50:37.426Z,100582.47
2022-08-30T13:53:08.981Z,100598.09
2022-08-30T13:55:43.994Z,100598.72
2022-08-30T13:58:13.775Z,100593.81
2022-08-30T14:00:43.772Z,100608.41
2022-08-30T14:03:10.249Z,100592.22
2022-08-30T14:08:45.586Z,100581.22
2022-08-30T14:11:19.323Z,100599.16
2022-08-30T14:16:35.204Z,100587.19
2022-08-30T14:19:02.337Z,100586.16
2022-08-30T14:21:29.129Z,100590.53
2022-08-30T14:23:57.960Z,100592.63
2022-08-30T14:26:35.680Z,100578.28
2022-08-30T14:29:05.336Z,100583.28
2022-08-30T14:31:36.275Z,100578.06
2022-08-30T14:34:05.261Z,100561.50
2022-08-30T14:36:34.057Z,100569.66
2022-08-30T14:39:01.034Z,100565.44
2022-08-30T14:41:27.560Z,100560.88
2022-08-30T14:43:54.047Z,100563.25
2022-08-30T14:46:22.058Z,100563.66
2022-08-30T14:48:52.082Z,100557.25
2022-08-30T14:51:20.714Z,100559.84
2022-08-30T14:53:48.124Z,100557.38
2022-08-30T14:56:17.296Z,100559.63
2022-08-30T14:58:48.803Z,100557.63
2022-08-30T15:01:15.399Z,100550.34
2022-08-30T15:03:42.189Z,100543.16
2022-08-30T15:06:13.838Z,100543.16
2022-08-30T15:08:42.739Z,100543.59
2022-08-30T15:11:19.628Z,100536.28
2022-08-30T15:13:46.961Z,100540.41
2022-08-30T15:16:17.535Z,100537.91
2022-08-30T15:18:44.707Z,100533.75
2022-08-30T15:21:11.528Z,100522.50
2022-08-30T15:23:39.303Z,100524.56
2022-08-30T15:26:06.949Z,100530.50
2022-08-30T15:28:35.006Z,100527.38
2022-08-30T15:31:06.300Z,100524.78
2022-08-30T15:33:37.554Z,100530.13
2022-08-30T15:36:05.427Z,100524.03
2022-08-30T15:38:32.222Z,100525.50
2022-08-30T15:41:05.572Z,100528.94
2022-08-30T15:43:32.071Z,100531.53
2022-08-30T15:46:22.737Z,100528.50
2022-08-30T15:48:55.137Z,100523.72
2022-08-30T15:51:25.399Z,100523.16
2022-08-30T15:53:55.507Z,100515.88
2022-08-30T15:56:22.538Z,100518.59
2022-08-30T15:58:48.972Z,100511.25
2022-08-30T16:01:30.510Z,100517.97
2022-08-30T16:03:57.572Z,100517.97
2022-08-30T16:06:31.254Z,100516.56
2022-08-30T16:08:58.741Z,100515.28
2022-08-30T16:11:27.701Z,100503.63
2022-08-30T16:13:56.906Z,100506.09
2022-08-30T16:16:23.967Z,100498.91
2022-08-30T16:18:55.112Z,100507.50
2022-08-30T16:21:25.232Z,100495.53
2022-08-30T16:23:55.289Z,100499.81
2022-08-30T16:26:22.503Z,100498.84
2022-08-30T16:28:49.917Z,100498.34
2022-08-30T16:31:17.793Z,100502.28
2022-08-30T16:33:52.467Z,100499.56
2022-08-30T16:36:19.708Z,100502.66
2022-08-30T16:38:47.969Z,100488.72
2022-08-30T16:41:21.480Z,100497.44
2022-08-30T16:43:49.395Z,100489.09
2022-08-30T16:46:18.081Z,100491.06
2022-08-30T16:48:46.300Z,100486.84
2022-08-30T16:51:24.866Z,100495.25
2022-08-30T16:53:58.122Z,100485.69
2022-08-30T16:56:26.719Z,100474.56
2022-08-30T16:59:02.053Z,100491.06
2022-08-30T17:01:34.833Z,100484.09
2022-08-30T17:04:02.604Z,100480.53
2022-08-30T17:06:31.254Z,100477.50
2022-08-30T17:08:58.565Z,100481.53
2022-08-30T17:11:25.469Z,100491.06
2022-08-30T17:13:52.678Z,100495.59
2022-08-30T17:16:22.574Z,100499.59
2022-08-30T17:18:54.985Z,100505.59
2022-08-30T17:21:21.782Z,100500.25
2022-08-30T17:23:49.549Z,100505.94
2022-08-30T17:26:19.309Z,100506.84
2022-08-30T17:28:45.930Z,100502.97
2022-08-30T17:31:12.839Z,100513.13
2022-08-30T17:33:43.033Z,100510.09
2022-08-30T17:36:12.165Z,100513.50
2022-08-30T17:38:38.566Z,100509.13
2022-08-30T17:41:11.416Z,100515.63
2022-08-30T17:43:42.706Z,100521.56
2022-08-30T17:46:18.332Z,100515.72
2022-08-30T17:48:45.801Z,100507.13
2022-08-30T17:51:12.992Z,100513.06
2022-08-30T17:53:39.786Z,100508.41
2022-08-30T17:56:06.324Z,100500.66
2022-08-30T17:58:34.424Z,100502.97
2022-08-30T18:01:20.096Z,100501.69
2022-08-30T18:03:48.648Z,100495.91
2022-08-30T18:06:15.529Z,100490.16
2022-08-30T18:08:43.052Z,100498.31
2022-08-30T18:11:09.561Z,100497.78
2022-08-30T18:13:43.366Z,100502.06
2022-08-30T18:16:10.404Z,100501.50
2022-08-30T18:18:40.120Z,100506.31
2022-08-30T18:21:13.641Z,100498.03
2022-08-30T18:23:40.381Z,100502.81
2022-08-30T18:26:07.515Z,100496.50
2022-08-30T18:28:34.626Z,100495.13
2022-08-30T18:31:01.087Z,100487.06
2022-08-30T18:33:28.499Z,100498.56
2022-08-30T18:35:55.975Z,100505.53
2022-08-30T18:38:23.948Z,100506.94
2022-08-30T18:40:51.773Z,100508.63
2022-08-30T18:43:18.759Z,100519.53
2022-08-30T18:45:51.582Z,100506.69
2022-08-30T18:48:19.395Z,100519.53
2022-08-30T18:50:46.709Z,100522.88
2022-08-30T18:53:14.804Z,100509.84
2022-08-30T18:55:55.006Z,100504.56
2022-08-30T18:58:21.779Z,100507.59
2022-08-30T19:00:51.882Z,100502.91
2022-08-30T19:03:19.785Z,100507.09
2022-08-30T19:05:49.026Z,100507.34
2022-08-30T19:08:16.036Z,100505.97
2022-08-30T19:10:44.364Z,100515.19
2022-08-30T19:13:11.016Z,100520.50
2022-08-30T19:15:39.922Z,100524.94
2022-08-30T19:18:16.778Z,100522.41
2022-08-30T19:20:45.194Z,100519.09
2022-08-30T19:23:12.114Z,100525.78
2022-08-30T19:25:42.555Z,100523.53
2022-08-30T19:28:10.464Z,100531.34
2022-08-30T19:30:37.699Z,100534.44
2022-08-30T19:33:04.210Z,100530.25
2022-08-30T19:35:35.848Z,100540.31
2022-08-30T19:38:02.304Z,100531.34
2022-08-30T19:40:28.786Z,100527.19
2022-08-30T19:43:00.098Z,100529.94
2022-08-30T19:45:27.008Z,100527.16
2022-08-30T19:47:53.477Z,100527.97
2022-08-30T19:50:24.205Z,100526.28
2022-08-30T19:52:59.290Z,100532.41
2022-08-30T19:55:28.438Z,100535.19
2022-08-30T19:58:14.023Z,100531.00
2022-08-30T20:00:54.209Z,100530.69
2022-08-30T20:03:34.457Z,100520.56
2022-08-30T20:06:03.831Z,100525.00
2022-08-30T20:08:31.357Z,100522.72
2022-08-30T20:10:57.872Z,100511.78
2022-08-30T20:13:24.320Z,100513.44
2022-08-30T20:15:59.347Z,100518.00
2022-08-30T20:18:26.217Z,100519.66
2022-08-30T20:20:53.458Z,100515.16
2022-08-30T20:23:22.967Z,100512.03
2022-08-30T20:25:56.523Z,100518.75
2022-08-30T20:28:25.064Z,100525.69
2022-08-30T20:30:52.268Z,100525.22
2022-08-30T20:33:20.065Z,100536.34
2022-08-30T20:35:49.348Z,100533.56
2022-08-30T20:38:23.700Z,100545.28
2022-08-30T20:40:56.550Z,100544.91
2022-08-30T20:43:26.778Z,100543.47
2022-08-30T20:45:55.282Z,100543.75
2022-08-30T20:48:23.731Z,100523.31
2022-08-30T20:50:52.512Z,100517.44
2022-08-30T20:53:18.964Z,100521.63
2022-08-30T20:55:47.261Z,100527.50
2022-08-30T20:58:14.390Z,100518.63
2022-08-30T21:00:41.199Z,100512.97
2022-08-30T21:03:27.403Z,100510.69
2022-08-30T21:05:59.561Z,100506.78
2022-08-30T21:08:26.270Z,100520.78
2022-08-30T21:10:54.490Z,100522.44
2022-08-30T21:13:21.227Z,100504.53
2022-08-30T21:15:52.083Z,100505.13
2022-08-30T21:18:18.617Z,100513.16
2022-08-30T21:20:45.165Z,100498.63
2022-08-30T21:23:11.837Z,100499.34
2022-08-30T21:25:40.478Z,100491.56
2022-08-30T21:28:07.746Z,100497.06
2022-08-30T21:30:39.917Z,100490.34
2022-08-30T21:33:10.156Z,100504.81
2022-08-30T21:35:55.813Z,100515.31
2022-08-30T21:38:27.459Z,100523.25
2022-08-30T21:40:56.443Z,100535.31
2022-08-30T21:43:22.852Z,100550.44
2022-08-30T21:45:51.235Z,100565.50
2022-08-30T21:48:17.975Z,100577.47
2022-08-30T21:50:45.664Z,100587.34
2022-08-30T21:53:15.504Z,100588.22
2022-08-30T21:55:43.720Z,100593.28
2022-08-30T21:58:12.926Z,100600.28
2022-08-30T22:00:39.420Z,100605.34
2022-08-30T22:03:05.873Z,100599.88
2022-08-30T22:05:32.271Z,100598.75
2022-08-30T22:07:59.496Z,100608.00
2022-08-30T22:10:29.005Z,100616.63
2022-08-30T22:12:58.279Z,100607.97
2022-08-30T22:15:29.654Z,100614.09
2022-08-30T22:17:56.080Z,100609.63
2022-08-30T22:20:22.465Z,100613.28
2022-08-30T22:22:52.539Z,100618.31
2022-08-30T22:25:23.961Z,100616.59
2022-08-30T22:27:50.547Z,100616.91
2022-08-30T22:30:19.472Z,100614.38
2022-08-30T22:32:45.874Z,100629.13
2022-08-30T22:35:15.677Z,100616.59
2022-08-30T22:37:42.694Z,100620.53
2022-08-30T22:40:14.268Z,100628.88
2022-08-30T22:42:40.734Z,100616.03
2022-08-30T22:45:14.722Z,100614.59
2022-08-30T22:47:41.108Z,100597.59
2022-08-30T22:50:08.021Z,100613.50
2022-08-30T22:52:34.527Z,100602.91
2022-08-30T22:55:00.951Z,100601.22
2022-08-30T22:57:27.548Z,100607.06
2022-08-30T22:59:54.719Z,100612.94
2022-08-30T23:02:21.172Z,100608.19
2022-08-30T23:04:47.752Z,100612.63
2022-08-30T23:07:14.153Z,100619.84
2022-08-30T23:09:40.569Z,100613.19
2022-08-30T23:12:07.163Z,100614.84
2022-08-30T23:14:33.652Z,100609.81
2022-08-30T23:17:00.643Z,100620.41
2022-08-30T23:19:27.250Z,100618.66
2022-08-30T23:21:53.681Z,100614.44
2022-08-30T23:24:38.709Z,100608.63
2022-08-30T23:27:23.970Z,100598.03
2022-08-30T23:30:09.071Z,100599.09
2022-08-30T23:32:53.930Z,100604.13
2022-08-30T23:35:39.015Z,100609.72
2022-08-30T23:38:26.610Z,100601.28
2022-08-30T23:41:11.510Z,100591.50
2022-08-30T23:43:59.425Z,100596.50
2022-08-30T23:46:44.450Z,100595.66
2022-08-30T23:49:34.636Z,100592.84
2022-08-30T23:52:23.059Z,100595.91
2022-08-30T23:55:08.191Z,100591.19
2022-08-30T23:57:53.623Z,100592.53
